createdAt,value
2018-05-13T00:01:03.719Z,18.90
2018-05-13T00:03:31.791Z,18.90
2018-05-13T00:06:00.661Z,18.90
2018-05-13T00:08:28.300Z,18.90
2018-05-13T00:10:55.761Z,18.80
2018-05-13T00:13:23.310Z,18.80
2018-05-13T00:15:53.183Z,18.90
2018-05-13T00:18:20.961Z,18.80
2018-05-13T00:20:48.403Z,18.80
2018-05-13T00:23:15.800Z,18.80
2018-05-13T00:25:43.223Z,18.70
2018-05-13T00:28:10.531Z,18.70
2018-05-13T00:30:37.951Z,18.70
2018-05-13T00:33:05.381Z,18.80
2018-05-13T00:35:34.673Z,18.80
2018-05-13T00:38:02.270Z,18.80
2018-05-13T00:40:29.701Z,18.60
2018-05-13T00:42:57.179Z,18.70
2018-05-13T00:45:25.761Z,18.60
2018-05-13T00:47:55.360Z,18.60
2018-05-13T00:50:23.610Z,18.70
2018-05-13T00:52:51.230Z,18.70
2018-05-13T00:55:19.401Z,18.60
2018-05-13T00:57:46.951Z,18.60
2018-05-13T01:00:14.511Z,18.60
2018-05-13T01:02:42.472Z,18.50
2018-05-13T01:05:10.291Z,18.50
2018-05-13T01:07:38.359Z,18.50
2018-05-13T01:10:05.840Z,18.40
2018-05-13T01:12:34.069Z,18.40
2018-05-13T01:15:03.291Z,18.40
2018-05-13T01:17:30.701Z,18.30
2018-05-13T01:19:58.000Z,18.40
2018-05-13T01:22:26.490Z,18.30
2018-05-13T01:24:54.310Z,18.30
2018-05-13T01:27:24.440Z,18.30
2018-05-13T01:29:51.891Z,18.20
2018-05-13T01:32:19.662Z,18.20
2018-05-13T01:34:47.890Z,18.20
2018-05-13T01:37:15.220Z,18.10
2018-05-13T01:39:43.321Z,18.10
2018-05-13T01:42:13.300Z,18.10
2018-05-13T01:44:41.860Z,18.10
2018-05-13T01:47:10.100Z,18.00
2018-05-13T01:49:38.050Z,18.00
2018-05-13T01:52:05.530Z,18.00
2018-05-13T01:54:33.515Z,18.00
2018-05-13T01:57:04.582Z,17.90
2018-05-13T01:59:31.984Z,18.00
2018-05-13T02:02:01.392Z,18.00
2018-05-13T02:04:28.840Z,17.90
2018-05-13T02:07:00.371Z,17.90
2018-05-13T02:09:27.841Z,18.00
2018-05-13T02:11:57.615Z,17.90
2018-05-13T02:14:25.590Z,18.00
2018-05-13T02:16:56.540Z,18.00
2018-05-13T02:19:23.861Z,18.00
2018-05-13T02:21:52.362Z,18.00
2018-05-13T02:24:20.460Z,18.00
2018-05-13T02:26:48.101Z,18.00
2018-05-13T02:29:16.261Z,18.10
2018-05-13T02:31:43.660Z,18.10
2018-05-13T02:34:11.201Z,18.00
2018-05-13T02:36:38.772Z,18.00
2018-05-13T02:39:07.911Z,18.00
2018-05-13T02:41:35.505Z,18.00
2018-05-13T02:44:02.821Z,18.00
2018-05-13T02:46:30.178Z,18.00
2018-05-13T02:48:57.702Z,18.00
2018-05-13T02:51:25.660Z,17.90
2018-05-13T02:53:53.046Z,17.90
2018-05-13T02:56:21.072Z,17.90
2018-05-13T02:58:48.511Z,17.90
2018-05-13T03:01:16.332Z,17.80
2018-05-13T03:03:43.867Z,17.80
2018-05-13T03:06:11.710Z,17.70
2018-05-13T03:08:39.743Z,17.70
2018-05-13T03:11:07.090Z,17.70
2018-05-13T03:13:34.600Z,17.60
2018-05-13T03:16:02.245Z,17.60
2018-05-13T03:18:29.881Z,17.50
2018-05-13T03:20:57.280Z,17.50
2018-05-13T03:23:24.841Z,17.50
2018-05-13T03:25:52.560Z,17.50
2018-05-13T03:28:24.864Z,17.50
2018-05-13T03:30:52.383Z,17.40
2018-05-13T03:33:20.822Z,17.40
2018-05-13T03:35:48.941Z,17.40
2018-05-13T03:38:16.893Z,17.50
2018-05-13T03:40:46.520Z,17.50
2018-05-13T03:43:14.093Z,17.50
2018-05-13T03:45:41.621Z,17.50
2018-05-13T03:48:09.371Z,17.50
2018-05-13T03:50:37.771Z,17.60
2018-05-13T03:53:05.322Z,17.80
2018-05-13T03:55:32.822Z,18.20
2018-05-13T03:58:02.600Z,18.50
2018-05-13T04:00:32.204Z,18.90
2018-05-13T04:02:59.800Z,19.30
2018-05-13T04:05:30.673Z,19.80
2018-05-13T04:11:42.941Z,20.80
2018-05-13T04:14:28.241Z,21.00
2018-05-13T04:16:56.001Z,21.60
2018-05-13T04:19:23.380Z,22.00
2018-05-13T04:21:52.141Z,22.30
2018-05-13T04:24:20.491Z,22.50
2018-05-13T04:26:48.111Z,22.70
2018-05-13T04:29:15.902Z,23.00
2018-05-13T04:31:44.021Z,23.30
2018-05-13T04:34:11.410Z,23.50
2018-05-13T04:36:41.224Z,23.70
2018-05-13T04:39:09.722Z,24.10
2018-05-13T04:41:38.920Z,24.30
2018-05-13T04:44:08.712Z,24.50
2018-05-13T04:46:38.681Z,24.70
2018-05-13T04:49:06.105Z,24.90
2018-05-13T04:51:35.801Z,25.00
2018-05-13T04:54:04.284Z,25.00
2018-05-13T04:56:31.892Z,25.20
2018-05-13T04:58:59.192Z,24.90
2018-05-13T05:01:26.821Z,25.20
2018-05-13T05:03:54.311Z,25.50
2018-05-13T05:06:21.722Z,25.50
2018-05-13T05:08:49.080Z,25.80
2018-05-13T05:11:17.010Z,26.10
2018-05-13T05:13:47.690Z,26.30
2018-05-13T05:16:15.222Z,26.30
2018-05-13T05:18:43.181Z,26.60
2018-05-13T05:21:10.339Z,26.80
2018-05-13T05:23:37.554Z,27.30
2018-05-13T05:26:05.150Z,27.50
2018-05-13T05:28:32.167Z,27.80
2018-05-13T05:31:02.241Z,27.30
2018-05-13T05:33:30.010Z,27.20
2018-05-13T05:35:57.460Z,27.20
2018-05-13T05:38:24.813Z,26.90
2018-05-13T05:40:52.196Z,26.70
2018-05-13T05:43:20.295Z,26.50
2018-05-13T05:45:47.673Z,26.40
2018-05-13T05:48:15.425Z,26.30
2018-05-13T05:50:42.979Z,25.90
2018-05-13T05:53:10.489Z,25.30
2018-05-13T05:55:38.667Z,24.40
2018-05-13T05:58:06.540Z,24.50
2018-05-13T06:00:34.441Z,23.80
2018-05-13T06:03:02.772Z,23.50
2018-05-13T06:05:31.539Z,23.00
2018-05-13T06:07:59.331Z,22.70
2018-05-13T06:10:27.131Z,22.70
2018-05-13T06:12:54.743Z,22.50
2018-05-13T06:15:22.350Z,22.40
2018-05-13T06:17:50.670Z,22.20
2018-05-13T06:20:18.341Z,22.00
2018-05-13T06:22:45.760Z,22.10
2018-05-13T06:25:13.225Z,22.00
2018-05-13T06:27:41.761Z,22.20
2018-05-13T06:30:09.421Z,22.30
2018-05-13T06:32:36.830Z,22.30
2018-05-13T06:35:04.064Z,22.40
2018-05-13T06:37:31.912Z,22.30
2018-05-13T06:40:00.580Z,22.40
2018-05-13T06:42:27.668Z,22.40
2018-05-13T06:44:55.230Z,22.60
2018-05-13T06:47:23.041Z,22.70
2018-05-13T06:49:50.389Z,22.90
2018-05-13T06:52:18.240Z,22.90
2018-05-13T06:54:45.730Z,23.20
2018-05-13T06:57:12.874Z,23.40
2018-05-13T06:59:40.481Z,23.40
2018-05-13T07:02:08.151Z,23.50
2018-05-13T07:04:35.970Z,23.60
2018-05-13T07:07:04.080Z,23.80
2018-05-13T07:09:31.662Z,24.00
2018-05-13T07:11:59.150Z,24.20
2018-05-13T07:14:27.641Z,24.40
2018-05-13T07:16:56.042Z,24.50
2018-05-13T07:19:24.280Z,24.60
2018-05-13T07:21:52.946Z,24.50
2018-05-13T07:24:20.652Z,24.50
2018-05-13T07:26:48.861Z,24.90
2018-05-13T07:29:16.454Z,24.90
2018-05-13T07:31:43.950Z,24.90
2018-05-13T07:34:12.001Z,24.90
2018-05-13T07:36:40.610Z,24.90
2018-05-13T07:39:08.771Z,25.10
2018-05-13T07:41:37.102Z,25.10
2018-05-13T07:44:04.774Z,25.30
2018-05-13T07:46:32.380Z,25.60
2018-05-13T07:49:01.050Z,25.80
2018-05-13T07:51:28.701Z,25.70
2018-05-13T07:53:56.271Z,25.70
2018-05-13T07:56:23.740Z,25.80
2018-05-13T07:58:52.501Z,25.80
2018-05-13T08:01:20.052Z,25.60
2018-05-13T08:03:47.531Z,25.50
2018-05-13T08:06:15.137Z,25.50
2018-05-13T08:08:42.771Z,25.70
2018-05-13T08:11:11.031Z,25.80
2018-05-13T08:13:38.601Z,26.00
2018-05-13T08:16:06.131Z,26.10
2018-05-13T08:18:34.248Z,26.10
2018-05-13T08:21:01.851Z,26.20
2018-05-13T08:23:29.301Z,26.30
2018-05-13T08:25:56.841Z,26.30
2018-05-13T08:28:24.663Z,26.30
2018-05-13T08:30:53.152Z,26.40
2018-05-13T08:33:20.891Z,26.40
2018-05-13T08:35:48.783Z,26.30
2018-05-13T08:38:17.390Z,26.60
2018-05-13T08:40:45.230Z,26.80
2018-05-13T08:43:13.502Z,27.00
2018-05-13T08:45:41.632Z,27.00
2018-05-13T08:48:09.160Z,27.00
2018-05-13T08:50:36.601Z,27.00
2018-05-13T08:53:04.321Z,27.00
2018-05-13T08:55:31.970Z,27.10
2018-05-13T08:58:00.271Z,27.10
2018-05-13T09:00:27.880Z,27.10
2018-05-13T09:02:55.861Z,27.20
2018-05-13T09:05:23.340Z,27.10
2018-05-13T09:07:51.792Z,27.10
2018-05-13T09:10:19.193Z,27.20
2018-05-13T09:12:46.821Z,27.50
2018-05-13T09:15:29.971Z,27.50
2018-05-13T09:18:06.775Z,27.60
2018-05-13T09:20:35.273Z,27.70
2018-05-13T09:23:02.621Z,27.90
2018-05-13T09:25:30.254Z,27.90
2018-05-13T09:27:57.785Z,28.00
2018-05-13T09:30:26.031Z,28.00
2018-05-13T09:32:55.074Z,28.10
2018-05-13T09:35:22.642Z,28.10
2018-05-13T09:37:50.264Z,28.10
2018-05-13T09:40:17.521Z,28.10
2018-05-13T09:42:44.961Z,28.20
2018-05-13T09:45:12.531Z,28.40
2018-05-13T09:47:40.111Z,28.50
2018-05-13T09:50:09.411Z,28.40
2018-05-13T09:52:36.871Z,28.60
2018-05-13T09:55:06.942Z,28.70
2018-05-13T09:57:37.489Z,29.00
2018-05-13T10:00:05.162Z,28.80
2018-05-13T10:02:33.041Z,28.60
2018-05-13T10:05:01.712Z,28.50
2018-05-13T10:07:29.242Z,28.60
2018-05-13T10:09:57.032Z,28.90
2018-05-13T10:12:24.622Z,29.00
2018-05-13T10:14:52.122Z,29.20
2018-05-13T10:17:22.253Z,29.30
2018-05-13T10:19:50.046Z,29.50
2018-05-13T10:22:18.291Z,29.40
2018-05-13T10:24:46.055Z,29.60
2018-05-13T10:27:15.197Z,29.70
2018-05-13T10:29:42.651Z,29.70
2018-05-13T10:32:10.131Z,29.90
2018-05-13T10:34:37.140Z,30.00
2018-05-13T10:37:04.481Z,30.20
2018-05-13T10:39:32.013Z,30.10
2018-05-13T10:42:00.801Z,30.30
2018-05-13T10:44:29.131Z,30.50
2018-05-13T10:46:56.711Z,30.40
2018-05-13T10:49:25.641Z,30.50
2018-05-13T10:51:53.031Z,30.20
2018-05-13T10:54:22.731Z,30.20
2018-05-13T10:56:51.956Z,30.10
2018-05-13T10:59:19.863Z,30.10
2018-05-13T11:01:48.420Z,30.10
2018-05-13T11:04:17.764Z,30.20
2018-05-13T11:06:45.650Z,30.20
2018-05-13T11:09:13.221Z,30.20
2018-05-13T11:11:40.556Z,30.20
2018-05-13T11:14:08.202Z,30.20
2018-05-13T11:16:35.780Z,30.30
2018-05-13T11:19:03.542Z,30.40
2018-05-13T11:21:31.412Z,30.30
2018-05-13T11:23:59.073Z,30.30
2018-05-13T11:26:26.670Z,30.20
2018-05-13T11:28:54.952Z,30.10
2018-05-13T11:31:23.461Z,30.20
2018-05-13T11:33:51.087Z,30.20
2018-05-13T11:36:18.542Z,30.40
2018-05-13T11:38:46.760Z,30.60
2018-05-13T11:41:14.280Z,30.50
2018-05-13T11:43:41.732Z,30.60
2018-05-13T11:46:09.190Z,30.60
2018-05-13T11:48:36.532Z,30.60
2018-05-13T11:51:05.152Z,30.60
2018-05-13T11:53:32.681Z,30.60
2018-05-13T11:56:00.972Z,30.70
2018-05-13T11:58:29.350Z,30.60
2018-05-13T12:00:57.701Z,30.60
2018-05-13T12:03:25.332Z,30.30
2018-05-13T12:05:52.854Z,30.50
2018-05-13T12:08:20.521Z,30.40
2018-05-13T12:10:48.550Z,30.60
2018-05-13T12:13:16.000Z,30.80
2018-05-13T12:15:43.781Z,31.00
2018-05-13T12:18:13.032Z,31.20
2018-05-13T12:20:40.331Z,31.30
2018-05-13T12:23:07.941Z,31.50
2018-05-13T12:25:35.262Z,31.30
2018-05-13T12:28:02.641Z,31.10
2018-05-13T12:30:30.061Z,31.20
2018-05-13T12:32:57.621Z,31.30
2018-05-13T12:35:25.200Z,31.20
2018-05-13T12:37:53.511Z,31.20
2018-05-13T12:40:21.361Z,31.20
2018-05-13T12:42:48.801Z,31.10
2018-05-13T12:45:17.270Z,30.50
2018-05-13T12:47:44.852Z,30.00
2018-05-13T12:50:12.865Z,29.60
2018-05-13T12:52:40.503Z,29.30
2018-05-13T12:55:08.562Z,29.20
2018-05-13T12:57:36.038Z,29.10
2018-05-13T13:00:04.595Z,29.00
2018-05-13T13:02:31.834Z,28.70
2018-05-13T13:04:59.417Z,28.60
2018-05-13T13:07:27.569Z,28.60
2018-05-13T13:09:55.771Z,28.40
2018-05-13T13:12:22.987Z,28.40
2018-05-13T13:14:50.611Z,28.30
2018-05-13T13:17:17.793Z,28.20
2018-05-13T13:19:47.181Z,28.20
2018-05-13T13:22:14.851Z,28.20
2018-05-13T13:24:43.717Z,28.20
2018-05-13T13:27:14.710Z,28.10
2018-05-13T13:29:41.733Z,28.10
2018-05-13T13:32:09.672Z,28.00
2018-05-13T13:34:46.546Z,28.00
2018-05-13T13:37:15.010Z,27.70
2018-05-13T13:39:42.561Z,27.90
2018-05-13T13:42:13.020Z,27.90
2018-05-13T13:44:41.610Z,27.90
2018-05-13T13:47:10.542Z,28.00
2018-05-13T13:49:38.685Z,27.90
2018-05-13T13:52:07.973Z,27.80
2018-05-13T13:54:36.094Z,27.80
2018-05-13T13:57:05.012Z,27.90
2018-05-13T13:59:36.570Z,27.90
2018-05-13T14:02:06.133Z,27.90
2018-05-13T14:04:36.956Z,27.90
2018-05-13T14:07:05.555Z,28.10
2018-05-13T14:09:33.895Z,28.10
2018-05-13T14:12:02.855Z,28.30
2018-05-13T14:14:34.576Z,28.30
2018-05-13T14:17:02.873Z,28.20
2018-05-13T14:19:31.270Z,28.40
2018-05-13T14:22:01.748Z,28.40
2018-05-13T14:24:29.174Z,28.40
2018-05-13T14:26:56.446Z,28.40
2018-05-13T14:29:25.870Z,28.40
2018-05-13T14:31:56.017Z,28.40
2018-05-13T14:34:27.509Z,28.50
2018-05-13T14:36:54.784Z,28.30
2018-05-13T14:39:22.609Z,28.20
2018-05-13T14:41:50.775Z,28.20
2018-05-13T14:44:19.701Z,28.20
2018-05-13T14:46:49.631Z,28.10
2018-05-13T14:49:18.185Z,28.10
2018-05-13T14:51:46.041Z,28.10
2018-05-13T14:54:14.680Z,28.20
2018-05-13T14:56:44.602Z,28.30
2018-05-13T14:59:14.060Z,28.40
2018-05-13T15:01:43.026Z,28.50
2018-05-13T15:04:12.988Z,28.50
2018-05-13T15:06:46.321Z,28.50
2018-05-13T15:09:13.752Z,28.70
2018-05-13T15:11:41.229Z,28.90
2018-05-13T15:14:09.041Z,29.00
2018-05-13T15:16:38.179Z,29.00
2018-05-13T15:19:05.752Z,29.10
2018-05-13T15:21:33.330Z,29.20
2018-05-13T15:24:00.780Z,29.10
2018-05-13T15:26:28.342Z,29.20
2018-05-13T15:28:55.796Z,29.30
2018-05-13T15:31:24.111Z,29.30
2018-05-13T15:33:52.430Z,29.40
2018-05-13T15:36:19.851Z,29.40
2018-05-13T15:38:47.371Z,29.50
2018-05-13T15:41:14.930Z,29.40
2018-05-13T15:43:42.761Z,29.10
2018-05-13T15:46:10.349Z,28.90
2018-05-13T15:48:37.821Z,28.80
2018-05-13T15:51:06.361Z,28.70
2018-05-13T15:53:34.050Z,28.80
2018-05-13T15:56:02.431Z,28.80
2018-05-13T15:58:30.771Z,28.80
2018-05-13T16:00:58.270Z,28.60
2018-05-13T16:03:25.920Z,28.40
2018-05-13T16:05:53.621Z,28.40
2018-05-13T16:08:22.171Z,28.40
2018-05-13T16:10:49.711Z,28.30
2018-05-13T16:13:17.311Z,28.20
2018-05-13T16:15:44.769Z,28.40
2018-05-13T16:18:13.105Z,28.50
2018-05-13T16:20:40.682Z,28.50
2018-05-13T16:23:08.720Z,28.30
2018-05-13T16:25:36.240Z,28.30
2018-05-13T16:28:03.891Z,28.40
2018-05-13T16:30:31.242Z,28.40
2018-05-13T16:32:59.110Z,28.40
2018-05-13T16:35:27.313Z,28.00
2018-05-13T16:37:55.140Z,28.00
2018-05-13T16:40:22.691Z,28.00
2018-05-13T16:42:50.331Z,28.00
2018-05-13T16:45:17.880Z,27.90
2018-05-13T16:47:45.423Z,27.90
2018-05-13T16:50:13.101Z,27.90
2018-05-13T16:52:41.072Z,28.00
2018-05-13T16:55:08.624Z,27.80
2018-05-13T16:57:36.211Z,27.80
2018-05-13T17:00:03.900Z,27.80
2018-05-13T17:02:31.983Z,27.90
2018-05-13T17:04:59.580Z,27.80
2018-05-13T17:07:27.300Z,27.90
2018-05-13T17:09:54.981Z,27.80
2018-05-13T17:12:23.110Z,27.80
2018-05-13T17:14:50.460Z,27.90
2018-05-13T17:17:17.975Z,27.80
2018-05-13T17:19:45.461Z,27.50
2018-05-13T17:22:13.073Z,27.10
2018-05-13T17:24:41.391Z,27.10
2018-05-13T17:27:08.911Z,27.20
2018-05-13T17:29:37.072Z,27.20
2018-05-13T17:32:05.772Z,27.40
2018-05-13T17:34:33.310Z,27.40
2018-05-13T17:37:00.842Z,27.40
2018-05-13T17:39:28.730Z,27.40
2018-05-13T17:41:56.290Z,27.40
2018-05-13T17:44:23.811Z,27.30
2018-05-13T17:46:51.351Z,27.30
2018-05-13T17:49:19.971Z,27.10
2018-05-13T17:51:47.420Z,27.10
2018-05-13T17:54:15.022Z,27.00
2018-05-13T17:56:43.449Z,26.80
2018-05-13T17:59:10.970Z,26.60
2018-05-13T18:01:39.241Z,26.50
2018-05-13T18:04:07.230Z,26.50
2018-05-13T18:06:34.891Z,26.20
2018-05-13T18:09:02.626Z,26.10
2018-05-13T18:11:30.841Z,25.90
2018-05-13T18:13:58.290Z,25.80
2018-05-13T18:16:26.172Z,25.50
2018-05-13T18:18:53.650Z,25.50
2018-05-13T18:21:24.090Z,25.40
2018-05-13T18:23:51.741Z,25.20
2018-05-13T18:26:19.382Z,25.20
2018-05-13T18:28:46.950Z,25.10
2018-05-13T18:31:14.471Z,25.10
2018-05-13T18:33:42.125Z,25.00
2018-05-13T18:36:09.601Z,24.80
2018-05-13T18:38:37.112Z,24.90
2018-05-13T18:41:04.681Z,24.80
2018-05-13T18:43:33.030Z,24.50
2018-05-13T18:46:00.501Z,24.60
2018-05-13T18:48:28.010Z,24.60
2018-05-13T18:50:55.570Z,24.50
2018-05-13T18:53:23.130Z,24.40
2018-05-13T18:55:50.720Z,24.40
2018-05-13T18:58:18.299Z,24.30
2018-05-13T19:00:46.750Z,24.30
2018-05-13T19:03:14.221Z,24.20
2018-05-13T19:05:41.731Z,24.10
2018-05-13T19:08:09.250Z,24.10
2018-05-13T19:10:37.202Z,24.00
2018-05-13T19:13:04.801Z,24.00
2018-05-13T19:15:32.351Z,24.00
2018-05-13T19:18:00.652Z,24.00
2018-05-13T19:20:28.281Z,23.90
2018-05-13T19:22:56.020Z,23.90
2018-05-13T19:25:23.431Z,23.80
2018-05-13T19:27:51.391Z,23.80
2018-05-13T19:30:18.830Z,23.80
2018-05-13T19:32:46.570Z,23.60
2018-05-13T19:35:14.230Z,23.70
2018-05-13T19:37:41.721Z,23.60
2018-05-13T19:40:09.192Z,23.60
2018-05-13T19:42:36.543Z,23.60
2018-05-13T19:45:05.936Z,23.60
2018-05-13T19:47:34.232Z,23.50
2018-05-13T19:50:02.032Z,23.50
2018-05-13T19:52:29.652Z,23.50
2018-05-13T19:54:57.172Z,23.60
2018-05-13T19:57:24.453Z,23.50
2018-05-13T19:59:52.920Z,23.50
2018-05-13T20:02:20.351Z,23.40
2018-05-13T20:04:47.851Z,23.50
2018-05-13T20:07:15.124Z,23.40
2018-05-13T20:09:42.813Z,23.40
2018-05-13T20:12:13.990Z,23.50
2018-05-13T20:14:42.232Z,23.40
2018-05-13T20:17:10.490Z,23.30
2018-05-13T20:19:37.852Z,23.40
2018-05-13T20:22:05.800Z,23.30
2018-05-13T20:24:34.162Z,23.20
2018-05-13T20:27:01.841Z,23.30
2018-05-13T20:29:29.311Z,23.20
2018-05-13T20:31:56.612Z,23.20
2018-05-13T20:34:24.160Z,23.10
2018-05-13T20:36:51.490Z,23.00
2018-05-13T20:39:19.632Z,23.10
2018-05-13T20:41:47.010Z,23.00
2018-05-13T20:44:14.464Z,23.10
2018-05-13T20:46:45.024Z,23.10
2018-05-13T20:49:12.341Z,23.00
2018-05-13T20:51:40.672Z,23.00
2018-05-13T20:54:08.161Z,23.00
2018-05-13T20:56:36.691Z,23.00
2018-05-13T20:59:04.172Z,23.00
2018-05-13T21:01:31.822Z,22.90
2018-05-13T21:03:59.201Z,23.00
2018-05-13T21:06:27.184Z,23.00
2018-05-13T21:08:54.751Z,22.90
2018-05-13T21:11:22.212Z,23.00
2018-05-13T21:13:49.522Z,23.00
2018-05-13T21:16:17.201Z,22.80
2018-05-13T21:18:45.301Z,22.90
2018-05-13T21:21:12.651Z,22.80
2018-05-13T21:23:41.011Z,22.80
2018-05-13T21:26:08.390Z,22.80
2018-05-13T21:28:35.701Z,22.80
2018-05-13T21:31:04.831Z,22.70
2018-05-13T21:33:33.492Z,22.60
2018-05-13T21:36:01.921Z,22.70
2018-05-13T21:38:30.112Z,22.70
2018-05-13T21:40:57.621Z,22.60
2018-05-13T21:43:25.380Z,22.60
2018-05-13T21:45:52.651Z,22.50
2018-05-13T21:48:20.021Z,22.50
2018-05-13T21:50:49.121Z,22.40
2018-05-13T21:53:16.689Z,22.40
2018-05-13T21:55:43.981Z,22.40
2018-05-13T21:58:11.480Z,22.40
2018-05-13T22:00:40.032Z,22.30
2018-05-13T22:03:07.529Z,22.20
2018-05-13T22:05:35.966Z,22.20
2018-05-13T22:08:04.620Z,22.20
2018-05-13T22:10:31.991Z,22.10
2018-05-13T22:13:00.480Z,22.10
2018-05-13T22:15:27.979Z,22.10
2018-05-13T22:17:55.269Z,22.00
2018-05-13T22:20:22.810Z,22.10
2018-05-13T22:22:53.799Z,22.00
2018-05-13T22:25:21.971Z,21.90
2018-05-13T22:27:49.300Z,21.90
2018-05-13T22:30:17.335Z,21.90
2018-05-13T22:32:46.833Z,21.90
2018-05-13T22:35:17.371Z,21.80
2018-05-13T22:37:47.410Z,21.80
2018-05-13T22:40:15.791Z,21.80
2018-05-13T22:42:43.902Z,21.80
2018-05-13T22:45:11.380Z,21.80
2018-05-13T22:47:38.876Z,21.80
2018-05-13T22:50:07.000Z,21.70
2018-05-13T22:52:34.650Z,21.70
2018-05-13T22:55:01.980Z,21.70
2018-05-13T22:57:29.449Z,21.70
2018-05-13T22:59:57.068Z,21.60
2018-05-13T23:02:25.352Z,21.60
2018-05-13T23:04:52.880Z,21.70
2018-05-13T23:07:20.250Z,21.60
2018-05-13T23:09:48.855Z,21.60
2018-05-13T23:12:17.742Z,21.60
2018-05-13T23:14:45.072Z,21.50
2018-05-13T23:17:12.502Z,21.60
2018-05-13T23:19:39.880Z,21.50
2018-05-13T23:22:08.592Z,21.50
2018-05-13T23:24:37.080Z,21.50
2018-05-13T23:27:05.040Z,21.50
2018-05-13T23:29:33.400Z,21.50
2018-05-13T23:32:00.811Z,21.50
2018-05-13T23:34:28.085Z,21.50
2018-05-13T23:36:55.270Z,21.60
2018-05-13T23:39:22.642Z,21.50
2018-05-13T23:41:50.020Z,21.60
2018-05-13T23:44:19.050Z,21.50
2018-05-13T23:46:47.871Z,21.50
2018-05-13T23:49:15.311Z,21.40
2018-05-13T23:51:42.631Z,21.50
2018-05-13T23:54:10.141Z,21.40
2018-05-13T23:56:37.521Z,21.40
2018-05-13T23:59:05.012Z,21.40
